Airfield :
LOGIN :

Register | Disclaimer

   EN    FR    IT 

 










Legend :    VFR   Marginal VFR   IFR   Intensive IFR   Very Intensive IFR
Visi :
Ceiling :
>= 8 km
>= 3000ft
5 to 8 km
1000 to 3000 ft
1500m to 5 km
500 to 1000 ft
800 to 1500m
200 to 500 ft
< 800m
< 200 ft
Symbols :   Thunderstorms  Fog  Heavy snow  Heavy precipitations  Wind > 20 kt
SIGMETs :     Misc.  Thunderstorms  Icing  Turbulence  Mountain Waves  Volcanic Ashes







- Airport Elevation : 479 ft
- IATA code : DOL
- Download approach charts


LFRG - Deauville

CURRENT METAR :
  • 212230Z AUTO VRB02KT 9999 OVC038 13/11 Q1020

EXPIRED METARs :
  • 212200Z AUTO VRB03KT 9999 BKN030 OVC035 13/11 Q1020
  • 212130Z AUTO 32005KT 9999 SCT021 BKN029 OVC034 13/11 Q1020
  • 212100Z AUTO 33004KT 300V360 9999 -RA FEW017 OVC029 14/12 Q1019
  • 212030Z AUTO 34004KT 300V020 9999 -RA BKN012 BKN020 OVC026 14/12 Q1019
  • 212000Z AUTO 34004KT 300V020 9999 FEW011 SCT016 OVC023 14/12 Q1019 TEMPO 3000 RADZ BKN006

TAF TAF LFRG
Valid from the 21 at 15:00 until the 22 at 00:00 UTC


211400Z 2115/2124 20012KT 9999 FEW040
TEMPO 2117/2121 3000 RADZ BKN006
BECMG 2116/2118 29011KT
ATIS : +33 2 31 65 65 36
No reported NOTAMs for that airfield.



MET'MAP, your aeronautical weather chart ! - Copyright ORBIFLY December 2007 - Disclaimer

ORBIFLY MET'MAP TEAM :

Programming & Development : Alexandra Zaïnal
Concept & Development : Baudouin d'Aumeries
Co-Development & Prog : Marc-Olivier Méhu
Technical & hardware support : Manuel Goepfert

Contact : metmap@orbifly.com




SOURCES & CREDITS :

   NOAA